createdAt,value
2023-08-17T00:01:08.285Z,77.06
2023-08-17T00:03:36.844Z,77.21
2023-08-17T00:06:05.254Z,77.29
2023-08-17T00:08:33.926Z,77.25
2023-08-17T00:11:01.951Z,77.23
2023-08-17T00:13:31.636Z,77.35
2023-08-17T00:15:59.635Z,77.41
2023-08-17T00:18:28.610Z,77.52
2023-08-17T00:20:57.231Z,77.69
2023-08-17T00:23:25.366Z,77.57
2023-08-17T00:25:53.743Z,77.36
2023-08-17T00:28:22.402Z,77.38
2023-08-17T00:30:52.760Z,77.44
2023-08-17T00:33:21.280Z,77.36
2023-08-17T00:35:50.447Z,77.58
2023-08-17T00:38:18.986Z,77.33
2023-08-17T00:40:47.533Z,77.44
2023-08-17T00:43:15.706Z,77.46
2023-08-17T00:45:43.921Z,77.68
2023-08-17T00:48:13.849Z,77.66
2023-08-17T00:50:42.568Z,77.81
2023-08-17T00:53:14.393Z,77.63
2023-08-17T00:55:42.930Z,77.48
2023-08-17T00:58:11.077Z,77.33
2023-08-17T01:00:39.241Z,77.41
2023-08-17T01:03:07.362Z,77.52
2023-08-17T01:05:37.501Z,77.26
2023-08-17T01:08:06.278Z,77.28
2023-08-17T01:10:43.516Z,77.17
2023-08-17T01:13:13.914Z,77.31
2023-08-17T01:15:45.194Z,77.68
2023-08-17T01:18:19.755Z,77.44
2023-08-17T01:20:50.602Z,77.49
2023-08-17T01:23:19.998Z,77.52
2023-08-17T01:25:48.436Z,77.47
2023-08-17T01:28:16.876Z,77.44
2023-08-17T01:30:49.955Z,77.57
2023-08-17T01:33:25.304Z,77.60
2023-08-17T01:35:58.107Z,77.56
2023-08-17T01:38:28.364Z,77.58
2023-08-17T01:40:57.370Z,77.72
2023-08-17T01:43:25.663Z,77.87
2023-08-17T01:45:53.898Z,78.03
2023-08-17T01:48:21.966Z,78.08
2023-08-17T01:50:50.192Z,78.23
2023-08-17T01:53:18.230Z,78.35
2023-08-17T01:55:47.849Z,78.48
2023-08-17T01:58:16.296Z,78.35
2023-08-17T02:00:44.480Z,78.23
2023-08-17T02:03:12.772Z,78.39
2023-08-17T02:05:40.866Z,78.40
2023-08-17T02:08:09.245Z,78.41
2023-08-17T02:10:37.526Z,78.64
2023-08-17T02:13:17.124Z,78.70
2023-08-17T02:15:46.451Z,78.68
2023-08-17T02:18:14.565Z,78.77
2023-08-17T02:20:42.627Z,78.82
2023-08-17T02:23:11.294Z,78.93
2023-08-17T02:25:40.403Z,78.89
2023-08-17T02:28:09.974Z,78.94
2023-08-17T02:30:38.091Z,79.00
2023-08-17T02:33:07.393Z,79.12
2023-08-17T02:35:36.073Z,79.17
2023-08-17T02:38:04.562Z,79.20
2023-08-17T02:40:32.983Z,79.16
2023-08-17T02:43:01.048Z,79.12
2023-08-17T02:45:30.512Z,79.22
2023-08-17T02:47:59.869Z,79.29
2023-08-17T02:50:28.136Z,79.30
2023-08-17T02:52:56.194Z,79.24
2023-08-17T02:55:24.394Z,79.42
2023-08-17T02:57:52.638Z,79.54
2023-08-17T03:00:21.319Z,79.43
2023-08-17T03:02:50.817Z,79.38
2023-08-17T03:05:19.160Z,79.45
2023-08-17T03:07:47.329Z,79.53
2023-08-17T03:10:15.637Z,79.57
2023-08-17T03:12:44.379Z,79.67
2023-08-17T03:15:12.581Z,79.76
2023-08-17T03:17:40.700Z,79.76
2023-08-17T03:20:11.302Z,79.85
2023-08-17T03:22:39.450Z,79.96
2023-08-17T03:25:08.754Z,79.99
2023-08-17T03:27:37.420Z,80.12
2023-08-17T03:30:06.994Z,80.18
2023-08-17T03:32:35.114Z,80.05
2023-08-17T03:35:03.419Z,79.93
2023-08-17T03:37:32.785Z,79.64
2023-08-17T03:40:01.759Z,79.68
2023-08-17T03:42:30.562Z,79.70
2023-08-17T03:44:58.648Z,79.66
2023-08-17T03:47:27.058Z,79.57
2023-08-17T03:49:55.624Z,79.60
2023-08-17T03:52:24.457Z,79.53
2023-08-17T03:54:53.961Z,79.50
2023-08-17T03:57:22.416Z,79.35
2023-08-17T03:59:51.878Z,79.22
2023-08-17T04:02:20.116Z,79.35
2023-08-17T04:04:48.164Z,79.18
2023-08-17T04:07:22.857Z,79.06
2023-08-17T04:09:51.127Z,78.88
2023-08-17T04:12:20.567Z,78.88
2023-08-17T04:14:48.629Z,78.42
2023-08-17T04:17:17.114Z,78.05
2023-08-17T04:19:45.590Z,78.11
2023-08-17T04:22:14.943Z,77.81
2023-08-17T04:24:42.970Z,77.38
2023-08-17T04:27:11.334Z,76.95
2023-08-17T04:29:41.219Z,76.52
2023-08-17T04:32:09.272Z,76.30
2023-08-17T04:34:37.771Z,76.04
2023-08-17T04:37:05.945Z,75.93
2023-08-17T04:39:34.071Z,75.74
2023-08-17T04:42:02.780Z,75.27
2023-08-17T04:44:30.995Z,74.82
2023-08-17T04:47:00.332Z,74.74
2023-08-17T04:49:28.444Z,74.85
2023-08-17T04:51:56.710Z,75.31
2023-08-17T04:54:24.989Z,75.19
2023-08-17T04:56:53.028Z,75.30
2023-08-17T04:59:21.395Z,75.66
2023-08-17T05:01:50.575Z,75.52
2023-08-17T05:04:20.194Z,75.74
2023-08-17T05:06:48.280Z,75.87
2023-08-17T05:09:16.752Z,75.79
2023-08-17T05:11:45.162Z,75.84
2023-08-17T05:14:13.805Z,75.87
2023-08-17T05:16:42.067Z,75.74
2023-08-17T05:19:10.337Z,75.61
2023-08-17T05:21:39.803Z,75.33
2023-08-17T05:24:08.452Z,75.89
2023-08-17T05:26:36.873Z,76.01
2023-08-17T05:29:06.033Z,74.74
2023-08-17T05:31:34.307Z,74.47
2023-08-17T05:34:02.760Z,74.60
2023-08-17T05:36:30.885Z,74.12
2023-08-17T05:39:01.588Z,74.36
2023-08-17T05:41:29.615Z,73.65
2023-08-17T05:43:57.764Z,72.88
2023-08-17T05:46:26.456Z,72.36
2023-08-17T05:48:54.751Z,72.13
2023-08-17T05:51:22.740Z,72.32
2023-08-17T05:53:50.958Z,72.44
2023-08-17T05:56:20.604Z,72.62
2023-08-17T05:58:48.795Z,73.36
2023-08-17T06:01:17.143Z,74.36
2023-08-17T06:03:45.648Z,75.37
2023-08-17T06:06:14.435Z,77.45
2023-08-17T06:08:45.573Z,78.13
2023-08-17T06:11:15.054Z,79.28
2023-08-17T06:13:46.041Z,80.13
2023-08-17T06:16:15.754Z,80.99
2023-08-17T06:18:44.871Z,82.04
2023-08-17T06:21:14.555Z,83.19
2023-08-17T06:23:42.827Z,84.36
2023-08-17T06:26:12.195Z,84.69
2023-08-17T06:28:40.886Z,85.34
2023-08-17T06:31:11.602Z,87.07
2023-08-17T06:33:40.884Z,88.01
2023-08-17T06:36:09.463Z,88.94
2023-08-17T06:38:37.838Z,89.74
2023-08-17T06:41:07.728Z,90.43
2023-08-17T06:43:36.289Z,91.08
2023-08-17T06:46:06.459Z,91.58
2023-08-17T06:48:36.213Z,91.99
2023-08-17T06:51:05.956Z,92.32
2023-08-17T06:53:34.292Z,92.60
2023-08-17T06:56:03.261Z,92.90
2023-08-17T06:58:31.508Z,93.36
2023-08-17T07:01:00.945Z,93.70
2023-08-17T07:03:29.144Z,93.97
2023-08-17T07:06:00.098Z,94.23
2023-08-17T07:08:28.274Z,94.42
2023-08-17T07:10:57.103Z,94.54
2023-08-17T07:13:25.538Z,94.68
2023-08-17T07:15:54.044Z,94.87
2023-08-17T07:18:22.420Z,94.97
2023-08-17T07:20:51.325Z,95.08
2023-08-17T07:23:20.790Z,95.23
2023-08-17T07:25:49.015Z,95.24
2023-08-17T07:28:17.732Z,95.27
2023-08-17T07:30:46.040Z,95.41
2023-08-17T07:33:14.517Z,95.64
2023-08-17T07:35:42.945Z,95.65
2023-08-17T07:38:15.906Z,95.65
2023-08-17T07:40:45.711Z,95.63
2023-08-17T07:43:14.352Z,95.78
2023-08-17T07:45:42.549Z,95.79
2023-08-17T07:48:11.039Z,96.04
2023-08-17T07:50:39.422Z,95.87
2023-08-17T07:53:07.691Z,95.72
2023-08-17T07:58:07.859Z,95.69
2023-08-17T08:00:36.503Z,95.37
2023-08-17T08:03:05.487Z,95.11
2023-08-17T08:05:34.168Z,94.79
2023-08-17T08:08:02.816Z,94.60
2023-08-17T08:10:31.215Z,94.55
2023-08-17T08:12:59.568Z,94.31
2023-08-17T08:15:29.606Z,93.95
2023-08-17T08:17:58.239Z,93.93
2023-08-17T08:20:26.842Z,93.73
2023-08-17T08:22:55.363Z,93.71
2023-08-17T08:25:24.702Z,93.55
2023-08-17T08:27:53.176Z,93.34
2023-08-17T08:30:22.077Z,93.26
2023-08-17T08:32:52.363Z,93.31
2023-08-17T08:35:23.164Z,92.63
2023-08-17T08:37:51.571Z,92.35
2023-08-17T08:40:21.503Z,91.66
2023-08-17T08:42:50.124Z,91.26
2023-08-17T08:45:20.926Z,91.03
2023-08-17T08:47:51.672Z,90.75
2023-08-17T08:50:23.224Z,90.30
2023-08-17T08:52:57.146Z,89.94
2023-08-17T08:55:26.285Z,89.43
2023-08-17T08:57:56.573Z,88.87
2023-08-17T09:00:27.092Z,89.00
2023-08-17T09:02:59.216Z,88.80
2023-08-17T09:05:28.730Z,88.52
2023-08-17T09:07:57.313Z,88.50
2023-08-17T09:10:27.736Z,87.97
2023-08-17T09:12:58.376Z,87.14
2023-08-17T09:15:27.422Z,86.63
2023-08-17T09:17:59.173Z,86.01
2023-08-17T09:23:20.152Z,83.01
2023-08-17T09:26:05.971Z,83.40
2023-08-17T09:31:47.802Z,82.86
2023-08-17T09:34:50.500Z,82.07
2023-08-17T14:13:49.636Z,67.47
2023-08-17T14:16:23.974Z,67.67
2023-08-17T14:22:13.516Z,68.26
2023-08-17T14:28:26.765Z,68.61
2023-08-17T14:40:02.864Z,68.57
2023-08-17T14:42:35.177Z,68.62
2023-08-17T14:45:19.403Z,68.90
2023-08-17T14:48:01.060Z,68.64
2023-08-17T14:56:00.617Z,68.97
2023-08-17T14:58:40.800Z,68.89
2023-08-17T15:01:20.703Z,68.67
2023-08-17T15:04:16.041Z,68.64
2023-08-17T15:06:55.803Z,68.94
2023-08-17T15:09:25.389Z,68.53
2023-08-17T15:11:53.400Z,68.73
2023-08-17T15:14:21.855Z,68.79
2023-08-17T15:16:52.285Z,68.09
2023-08-17T15:19:38.571Z,68.24
2023-08-17T15:22:15.016Z,68.11
2023-08-17T15:24:45.463Z,68.41
2023-08-17T15:27:13.942Z,68.34
2023-08-17T15:29:42.239Z,68.57
2023-08-17T15:32:10.937Z,68.06
2023-08-17T15:34:40.404Z,67.86
2023-08-17T15:37:09.161Z,68.02
2023-08-17T15:39:37.652Z,68.37
2023-08-17T15:42:06.428Z,68.60
2023-08-17T15:44:35.190Z,68.62
2023-08-17T15:47:03.665Z,68.85
2023-08-17T15:49:32.007Z,69.17
2023-08-17T15:52:03.786Z,69.12
2023-08-17T15:54:36.892Z,69.34
2023-08-17T15:57:06.262Z,69.14
2023-08-17T15:59:34.962Z,69.23
2023-08-17T16:02:03.505Z,69.38
2023-08-17T16:04:31.979Z,69.59
2023-08-17T16:07:02.021Z,69.56
2023-08-17T16:09:31.598Z,69.38
2023-08-17T16:12:00.119Z,69.53
2023-08-17T16:14:28.304Z,69.63
2023-08-17T16:16:57.575Z,69.83
2023-08-17T16:19:26.300Z,69.87
2023-08-17T16:21:54.527Z,70.10
2023-08-17T16:24:27.456Z,70.28
2023-08-17T16:26:56.072Z,69.90
2023-08-17T16:29:24.363Z,70.03
2023-08-17T16:32:08.262Z,70.16
2023-08-17T16:34:37.084Z,70.53
2023-08-17T16:37:05.610Z,70.39
2023-08-17T16:39:36.665Z,70.47
2023-08-17T16:42:05.008Z,70.66
2023-08-17T16:44:33.055Z,70.89
2023-08-17T16:47:01.296Z,70.89
2023-08-17T16:49:31.095Z,71.03
2023-08-17T16:52:00.322Z,71.01
2023-08-17T16:54:28.611Z,71.13
2023-08-17T16:56:58.630Z,71.12
2023-08-17T16:59:26.894Z,71.39
2023-08-17T17:01:58.617Z,71.50
2023-08-17T17:04:26.890Z,71.27
2023-08-17T17:06:55.064Z,71.50
2023-08-17T17:09:23.266Z,71.51
2023-08-17T17:11:51.490Z,71.59
2023-08-17T17:14:22.921Z,71.78
2023-08-17T17:16:53.949Z,71.86
2023-08-17T17:19:22.204Z,71.96
2023-08-17T17:21:50.214Z,72.09
2023-08-17T17:24:18.558Z,72.25
2023-08-17T17:26:46.659Z,72.32
2023-08-17T17:29:14.751Z,72.24
2023-08-17T17:31:44.222Z,72.55
2023-08-17T17:34:13.520Z,72.29
2023-08-17T17:36:41.666Z,72.30
2023-08-17T17:39:09.755Z,72.46
2023-08-17T17:41:37.735Z,72.65
2023-08-17T17:44:06.387Z,72.71
2023-08-17T17:46:34.879Z,72.68
2023-08-17T17:49:04.326Z,72.88
2023-08-17T17:51:32.452Z,72.86
2023-08-17T17:54:00.533Z,73.09
2023-08-17T17:56:42.028Z,73.21
2023-08-17T17:59:11.814Z,73.25
2023-08-17T18:01:40.254Z,73.40
2023-08-17T18:04:10.955Z,73.51
2023-08-17T18:06:39.228Z,73.62
2023-08-17T18:09:07.786Z,73.70
2023-08-17T18:11:36.328Z,73.91
2023-08-17T18:14:05.022Z,73.78
2023-08-17T18:16:33.165Z,73.86
2023-08-17T18:19:01.498Z,74.10
2023-08-17T18:21:32.072Z,74.20
2023-08-17T18:24:00.798Z,74.36
2023-08-17T18:26:29.337Z,74.36
2023-08-17T18:28:58.037Z,74.24
2023-08-17T18:31:26.455Z,74.41
2023-08-17T18:33:55.176Z,74.22
2023-08-17T18:36:23.349Z,74.48
2023-08-17T18:38:52.798Z,74.53
2023-08-17T18:41:20.817Z,74.73
2023-08-17T18:43:49.225Z,74.86
2023-08-17T18:46:17.726Z,75.06
2023-08-17T18:48:45.820Z,75.25
2023-08-17T18:51:14.480Z,75.40
2023-08-17T18:53:42.505Z,75.65
2023-08-17T18:56:11.895Z,76.02
2023-08-17T18:58:39.944Z,76.26
2023-08-17T19:01:08.337Z,76.65
2023-08-17T19:03:36.769Z,76.97
2023-08-17T19:06:05.107Z,77.16
2023-08-17T19:08:33.451Z,77.52
2023-08-17T19:11:01.504Z,77.55
2023-08-17T19:13:31.557Z,77.51
2023-08-17T19:15:59.663Z,77.64
2023-08-17T19:18:28.041Z,77.78
2023-08-17T19:20:56.228Z,77.82
2023-08-17T19:23:24.517Z,77.98
2023-08-17T19:25:53.125Z,78.05
2023-08-17T19:28:21.138Z,78.16
2023-08-17T19:30:50.500Z,78.27
2023-08-17T19:33:18.595Z,78.11
2023-08-17T19:35:46.744Z,77.86
2023-08-17T19:38:14.831Z,77.49
2023-08-17T19:40:45.972Z,77.16
2023-08-17T19:43:14.214Z,77.14
2023-08-17T19:45:42.445Z,77.31
2023-08-17T19:48:11.920Z,77.36
2023-08-17T19:50:41.533Z,77.41
2023-08-17T19:53:09.659Z,77.07
2023-08-17T19:55:37.911Z,77.20
2023-08-17T19:58:07.170Z,77.04
2023-08-17T20:00:35.551Z,76.49
2023-08-17T20:03:05.397Z,76.02
2023-08-17T20:05:35.256Z,75.53
2023-08-17T20:08:03.673Z,75.25
2023-08-17T20:10:31.834Z,75.23
2023-08-17T20:13:00.196Z,75.13
2023-08-17T20:15:28.446Z,75.10
2023-08-17T20:17:56.729Z,75.09
2023-08-17T20:20:24.835Z,75.23
2023-08-17T20:22:54.887Z,75.38
2023-08-17T20:25:23.942Z,75.43
2023-08-17T20:27:52.725Z,75.71
2023-08-17T20:30:22.697Z,75.77
2023-08-17T20:32:51.047Z,75.94
2023-08-17T20:35:19.384Z,75.88
2023-08-17T20:37:49.583Z,76.08
2023-08-17T20:40:19.176Z,76.10
2023-08-17T20:42:47.831Z,76.13
2023-08-17T20:45:16.232Z,76.26
2023-08-17T20:47:44.487Z,76.36
2023-08-17T20:50:13.392Z,76.66
2023-08-17T20:52:41.856Z,76.66
2023-08-17T20:55:10.506Z,76.75
2023-08-17T20:57:40.783Z,76.83
2023-08-17T21:00:11.044Z,76.93
2023-08-17T21:02:40.099Z,76.92
2023-08-17T21:05:08.749Z,77.13
2023-08-17T21:07:37.019Z,77.47
2023-08-17T21:10:09.756Z,78.03
2023-08-17T21:12:37.900Z,78.65
2023-08-17T21:15:10.358Z,79.28
2023-08-17T21:17:44.480Z,84.02
2023-08-17T21:20:13.412Z,86.01
2023-08-17T21:22:45.461Z,88.06
2023-08-17T21:25:14.394Z,89.90
2023-08-17T21:27:42.419Z,91.22
2023-08-17T22:36:59.127Z,96.55
2023-08-17T22:39:28.084Z,96.57
2023-08-17T22:41:56.164Z,96.55
2023-08-17T22:44:25.134Z,96.56
2023-08-17T22:46:54.105Z,96.54
2023-08-17T22:49:22.488Z,96.61
2023-08-17T22:51:50.964Z,96.75
2023-08-17T22:54:20.765Z,96.76
2023-08-17T22:56:49.244Z,96.74
2023-08-17T22:59:18.370Z,96.82
2023-08-17T23:01:47.022Z,96.79
2023-08-17T23:04:15.463Z,96.80
2023-08-17T23:06:43.699Z,96.84
2023-08-17T23:09:11.825Z,96.87
2023-08-17T23:11:41.745Z,96.93
2023-08-17T23:14:10.573Z,97.02
2023-08-17T23:16:38.934Z,97.08
2023-08-17T23:19:07.285Z,97.14
2023-08-17T23:21:36.537Z,97.24
2023-08-17T23:24:06.309Z,97.28
2023-08-17T23:26:35.648Z,97.24
2023-08-17T23:29:13.357Z,97.24
2023-08-17T23:31:41.612Z,97.21
2023-08-17T23:34:09.732Z,97.22
2023-08-17T23:36:38.769Z,97.28
2023-08-17T23:39:08.554Z,97.38
2023-08-17T23:41:37.253Z,97.33
2023-08-17T23:44:08.110Z,97.33
2023-08-17T23:46:36.462Z,97.50
2023-08-17T23:49:05.571Z,97.54
2023-08-17T23:51:33.941Z,97.56
2023-08-17T23:54:02.184Z,97.59
2023-08-17T23:56:30.592Z,97.58
2023-08-17T23:58:59.403Z,97.61
